Flight Track Log - Related Links

Times and Time Zones

All times are in EDT time to prevent confusion due to time zone crossing. See the LXJ342 flight status page for this flight to view local times or setup timezone preferences in your user account.

Time Position Orientation Groundspeed Altitude Reporting Facility
EDT Latitude Longitude Course Direction KTS MPH feet Rate Location/Type
Tue 02:38:03 PM 37.5847 -122.2392 17° North 240 276 4,500  Level Oakland Center
Tue 02:39:04 PM 37.5617 -122.1428 107° East 272 313 7,100 2,341 Climbing Oakland Center
Tue 02:40:06 PM 37.5894 -122.0547 68° East 306 352 9,300 2,146 Climbing Oakland Center
Tue 02:41:07 PM 37.6753 -122.0044 25° Northeast 337 388 11,500 2,311 Climbing Oakland Center
Tue 02:42:00 PM 37.9475 -121.6953 15° North  Level FlightAware Approximate
Tue 02:42:08 PM 37.7661 -121.9506 25° Northeast 359 413 14,000  Level Oakland Center
Tue 02:43:00 PM 38.0770 -121.6625 17° North  Level FlightAware Approximate
Tue 02:43:10 PM 37.8839 -121.8814 25° Northeast 390 449 16,400  Level Oakland Center
Tue 02:44:11 PM 37.9867 -121.8222 24° Northeast 406 467 18,400 1,967 Climbing Oakland Center
Tue 02:45:12 PM 38.0919 -121.7600 25° Northeast 417 480 20,400 1,805 Climbing Oakland Center
Tue 02:46:14 PM 38.1981 -121.6986 24° Northeast 420 483 22,100 1,561 Climbing Oakland Center
Tue 02:47:15 PM 38.3053 -121.6344 25° Northeast 427 491 23,600 1,377 Climbing Oakland Center
Tue 02:48:16 PM 38.4156 -121.5667 26° Northeast 438 504 24,900 1,082 Climbing Oakland Center
Tue 02:49:17 PM 38.5025 -121.4456 47° Northeast 481 554 25,800 934 Climbing Oakland Center
Tue 02:50:18 PM 38.5831 -121.3103 53° Northeast 485 558 26,800 1,073 Climbing Oakland Center
Tue 02:51:20 PM 38.6817 -121.1436 53° Northeast 493 567 28,000 1,024 Climbing Oakland Center
Tue 02:52:21 PM 38.7550 -121.0178 53° Northeast 494 568 28,900 885 Climbing Oakland Center
Tue 02:53:22 PM 38.8369 -120.8739 54° Northeast 498 573 29,800 934 Climbing Oakland Center
Tue 02:54:23 PM 38.9206 -120.7300 53° Northeast 501 577 30,800 984 Climbing Oakland Center
Tue 02:55:24 PM 39.0042 -120.5850 53° Northeast 504 580 31,800 1,033 Climbing Oakland Center
Tue 02:56:25 PM 39.1033 -120.4122 53° Northeast 501 577 32,900 836 Climbing Oakland Center
Tue 02:57:26 PM 39.1861 -120.2683 53° Northeast 499 574 33,500 537 Climbing Oakland Center
Tue 02:58:28 PM 39.2719 -120.1169 54° Northeast 501 577 34,000 488 Climbing Oakland Center
Tue 02:59:29 PM 39.3597 -119.9697 52° Northeast 512 589 34,500 492 Climbing Oakland Center
Tue 03:00:30 PM 39.4422 -119.8200 54° Northeast 511 588 35,000 246 Climbing Oakland Center
Tue 03:01:31 PM 39.5275 -119.6686 54° Northeast 517 595 35,000  Level Oakland Center
Tue 03:02:32 PM 39.6117 -119.5158 54° Northeast 519 597 35,000  Level Oakland Center
Tue 03:03:34 PM 39.6978 -119.3611 54° Northeast 522 601 35,000  Level Oakland Center
Tue 03:04:35 PM 39.7853 -119.2036 54° Northeast 530 610 35,000  Level Oakland Center
Tue 03:05:36 PM 39.8733 -119.0461 54° Northeast 532 612 35,000  Level Oakland Center
Tue 03:06:37 PM 39.9603 -118.8847 55° Northeast 536 617 35,000  Level Oakland Center
Tue 03:07:38 PM 40.0306 -118.7106 62° Northeast 548 631 35,000  Level Oakland Center
Tue 03:08:40 PM 40.0856 -118.5267 69° East 542 624 35,000  Level Oakland Center
Tue 03:09:41 PM 40.1406 -118.3442 68° East 539 620 35,000 148 Level Oakland Center
Tue 03:10:42 PM 40.1939 -118.1597 69° East 540 621 35,300 400 Climbing Oakland Center
Tue 03:11:41 PM 40.2475 -117.9694 70° East 534 615 35,800 496 Climbing Salt Lake Center
Tue 03:12:43 PM 40.2836 -117.7903 75° East 533 613 36,300 484 Climbing Salt Lake Center
Tue 03:13:45 PM 40.3256 -117.5831 75° East 527 606 36,800 339 Climbing Salt Lake Center
Tue 03:14:47 PM 40.3614 -117.4058 75° East 525 604 37,000 97 Climbing Salt Lake Center
Tue 03:15:49 PM 40.4033 -117.1964 75° East 530 610 37,000  Level Salt Lake Center
Tue 03:16:50 PM 40.4406 -117.0150 75° East 533 613 37,000  Level Salt Lake Center
Tue 03:17:52 PM 40.4772 -116.8136 76° East 543 625 37,000  Level Salt Lake Center
Tue 03:18:54 PM 40.5181 -116.6039 76° East 541 623 37,000  Level Salt Lake Center
Tue 03:19:56 PM 40.5525 -116.4211 76° East 537 618 37,000  Level Salt Lake Center
Tue 03:20:58 PM 40.5858 -116.2397 76° East 533 613 37,000  Level Salt Lake Center
Tue 03:21:59 PM 40.6275 -116.0272 75° East 536 617 37,000  Level Salt Lake Center
Tue 03:23:01 PM 40.6586 -115.8453 77° East 534 615 37,000  Level Salt Lake Center
Tue 03:24:03 PM 40.6958 -115.6328 77° East 533 613 37,000  Level Salt Lake Center
Tue 03:25:05 PM 40.7308 -115.4519 76° East 532 612 37,000  Level Salt Lake Center
Tue 03:26:07 PM 40.7681 -115.2397 77° East 533 613 37,000  Level Salt Lake Center
Tue 03:27:09 PM 40.8003 -115.0581 77° East 532 612 37,000  Level Salt Lake Center
Tue 03:28:10 PM 40.8381 -114.8450 77° East 534 615 37,000  Level Salt Lake Center
Tue 03:29:12 PM 40.8731 -114.6636 76° East 534 615 37,000  Level Salt Lake Center
Tue 03:30:14 PM 40.9042 -114.4803 77° East 534 615 37,000  Level Salt Lake Center
Tue 03:31:16 PM 40.9361 -114.2853 78° East 531 611 37,000  Level Salt Lake Center
Tue 03:32:18 PM 40.9675 -114.0950 78° East 531 611 37,000  Level Salt Lake Center
Tue 03:33:20 PM 41.0058 -113.8683 77° East 528 608 37,000  Level Salt Lake Center
Tue 03:34:21 PM 41.0364 -113.6783 78° East 530 610 37,000  Level Salt Lake Center
Tue 03:35:23 PM 41.0658 -113.4864 78° East 532 612 37,000  Level Salt Lake Center
Tue 03:36:25 PM 41.0961 -113.2961 78° East 530 610 37,000  Level Salt Lake Center
Tue 03:37:26 PM 41.1256 -113.1036 78° East 533 613 37,000  Level Salt Lake Center
Tue 03:38:28 PM 41.1564 -112.9131 78° East 530 610 37,000  Level Salt Lake Center
Tue 03:39:30 PM 41.1858 -112.7225 78° East 529 609 37,000  Level Salt Lake Center
Tue 03:40:32 PM 41.2208 -112.4953 78° East 524 603 37,000  Level Salt Lake Center
Tue 03:41:33 PM 41.2494 -112.3042 79° East 525 604 37,000  Level Salt Lake Center
Tue 03:42:35 PM 41.2778 -112.1131 79° East 524 603 37,000  Level Salt Lake Center
Tue 03:43:37 PM 41.3058 -111.9197 79° East 525 604 37,000  Level Salt Lake Center
Tue 03:44:38 PM 41.3344 -111.7272 79° East 524 603 37,000  Level Salt Lake Center
Tue 03:45:40 PM 41.3628 -111.5353 79° East 524 603 37,000  Level Salt Lake Center
Tue 03:46:42 PM 41.3897 -111.3422 79° East 526 605 37,000  Level Salt Lake Center
Tue 03:47:43 PM 41.4156 -111.1508 80° East 525 604 37,000  Level Salt Lake Center
Tue 03:48:45 PM 41.4464 -110.9303 79° East 525 604 37,000  Level Salt Lake Center
Tue 03:49:47 PM 41.4722 -110.7444 79° East 532 612 37,000  Level Salt Lake Center
Tue 03:50:48 PM 41.4958 -110.5606 80° East 528 608 37,000  Level Salt Lake Center
Tue 03:51:50 PM 41.5258 -110.3453 79° East 528 608 37,000  Level Salt Lake Center
Tue 03:52:52 PM 41.5503 -110.1600 80° East 530 610 37,000  Level Salt Lake Center
Tue 03:53:53 PM 41.5781 -109.9433 80° East 531 611 37,000  Level Salt Lake Center
Tue 03:54:55 PM 41.6011 -109.7578 81° East 529 609 37,000  Level Salt Lake Center
Tue 03:55:57 PM 41.6253 -109.5714 80° East 530 610 37,000  Level Salt Lake Center
Tue 03:56:58 PM 41.6531 -109.3531 80° East 530 610 37,000  Level Salt Lake Center
Tue 03:58:00 PM 41.6767 -109.1658 80° East 529 609 37,000  Level Salt Lake Center
Tue 03:59:02 PM 41.7028 -108.9464 81° East 528 608 37,000  Level Salt Lake Center
Tue 04:00:03 PM 41.7244 -108.7606 81° East 525 604 37,000  Level Salt Lake Center
Tue 04:01:05 PM 41.7467 -108.5750 81° East 527 606 37,000  Level Salt Lake Center
Tue 04:02:07 PM 41.7708 -108.3597 81° East 526 605 37,000  Level Salt Lake Center
Tue 04:03:08 PM 41.7917 -108.1761 81° East 522 601 37,000  Level Salt Lake Center
Tue 04:04:10 PM 41.8158 -107.9586 81° East 528 608 37,000  Level Salt Lake Center
Tue 04:05:19 PM 41.8392 -107.7428 82° East 524 603 37,000  Level Denver Center
Tue 04:06:13 PM 41.8556 -107.5897 82° East 525 604 37,000  Level Salt Lake Center
Tue 04:07:15 PM 41.8783 -107.3728 82° East 528 608 37,000  Level Salt Lake Center
Tue 04:08:17 PM 41.8975 -107.1886 82° East 525 604 37,000  Level Salt Lake Center
Tue 04:09:19 PM 41.9206 -106.9731 82° East 524 603 37,000  Level Salt Lake Center
Tue 04:10:20 PM 41.9383 -106.7861 83° East 528 608 37,000  Level Salt Lake Center
Tue 04:11:22 PM 41.9594 -106.5664 83° East 529 609 37,000  Level Salt Lake Center
Tue 04:12:23 PM 41.9772 -106.3803 83° East 528 608 37,000  Level Salt Lake Center
Tue 04:13:25 PM 41.9958 -106.1947 82° East 525 604 37,000  Level Salt Lake Center
Tue 04:13:56 PM 42.0008 -106.1317 84° East 527 606 37,000  Level Denver Center
Tue 04:15:28 PM 42.0322 -105.7911 83° East 527 606 37,000  Level Salt Lake Center
Tue 04:16:00 PM 42.0450 -105.6697 82° East 519 597 37,000  Level Denver Center
Tue 04:17:02 PM 42.0628 -105.4839 83° East 523 602 37,000  Level Denver Center
Tue 04:18:03 PM 42.0814 -105.2669 83° East 524 603 37,000  Level Denver Center
Tue 04:19:05 PM 42.0947 -105.0806 84° East 525 604 37,000  Level Denver Center
Tue 04:20:07 PM 42.1100 -104.8944 84° East 526 605 37,000  Level Denver Center
Tue 04:21:08 PM 42.1281 -104.6775 84° East 525 604 37,000  Level Denver Center
Tue 04:22:22 PM 42.1422 -104.4939 84° East 522 601 37,000 176 Level Denver Center
Tue 04:23:24 PM 42.1611 -104.2481 84° East 520 598 37,400 484 Climbing Denver Center
Tue 04:24:26 PM 42.1775 -104.0364 84° East 513 590 38,000 488 Climbing Denver Center
Tue 04:25:27 PM 42.1911 -103.8533 84° East 514 592 38,400 488 Climbing Denver Center
Tue 04:26:29 PM 42.2069 -103.6431 84° East 508 585 39,000 532 Climbing Denver Center
Tue 04:27:31 PM 42.2192 -103.4644 85° East 503 579 39,500 390 Climbing Denver Center
Tue 04:28:32 PM 42.2306 -103.3158 84° East 502 578 39,800 390 Climbing Denver Center
Tue 04:29:34 PM 42.2467 -103.0811 85° East 496 571 40,300 341 Climbing Denver Center
Tue 04:30:35 PM 42.2550 -102.9347 86° East 493 567 40,500 195 Climbing Denver Center
Tue 04:31:37 PM 42.2692 -102.7014 85° East 492 566 40,700 194 Climbing Denver Center
Tue 04:32:39 PM 42.2817 -102.5264 84° East 490 564 40,900 145 Climbing Denver Center
Tue 04:33:41 PM 42.2944 -102.3186 85° East 496 571 41,000 48 Climbing Denver Center
Tue 04:34:43 PM 42.3061 -102.1414 85° East 496 571 41,000  Level Denver Center
Tue 04:35:44 PM 42.3147 -101.9633 86° East 497 572 41,000  Level Denver Center
Tue 04:36:46 PM 42.3275 -101.7542 85° East 498 573 41,000  Level Denver Center
Tue 04:37:48 PM 42.3372 -101.5739 86° East 500 575 41,000  Level Denver Center
Tue 04:38:50 PM 42.3489 -101.3625 86° East 500 575 41,000  Level Denver Center
Tue 04:39:51 PM 42.3578 -101.1828 86° East 500 575 41,000  Level Denver Center
Tue 04:40:53 PM 42.3647 -101.0350 86° East 495 570 41,000  Level Denver Center
Tue 04:41:55 PM 42.3756 -100.7986 86° East 494 568 41,000  Level Denver Center
Tue 04:42:57 PM 42.3833 -100.6231 87° East 490 564 41,000  Level Denver Center
Tue 04:43:59 PM 42.3922 -100.4192 87° East 485 558 41,000  Level Denver Center
Tue 04:45:00 PM 42.3997 -100.2431 87° East 488 562 41,000  Level Denver Center
Tue 04:46:02 PM 42.4089 -100.0386 86° East 487 560 41,000  Level Denver Center
Tue 04:47:04 PM 42.4153 -99.8636 87° East 487 560 41,000  Level Denver Center
Tue 04:48:06 PM 42.4222 -99.6586 87° East 488 562 41,000  Level Denver Center
Tue 04:49:07 PM 42.4289 -99.4978 87° East 491 565 41,000  Level Denver Center
Tue 04:50:30 PM 42.4381 -99.2392 87° East 493 567 41,000  Level Minneapolis Center
Tue 04:51:32 PM 42.4442 -99.0525 87° East 495 570 41,000  Level Minneapolis Center
Tue 04:52:34 PM 42.4497 -98.8661 88° East 495 570 41,000  Level Minneapolis Center
Tue 04:53:36 PM 42.4558 -98.6394 88° East 497 572 41,000  Level Minneapolis Center
Tue 04:54:38 PM 42.4606 -98.4536 88° East 496 571 41,000  Level Minneapolis Center
Tue 04:55:40 PM 42.4661 -98.2675 88° East 494 568 41,000  Level Minneapolis Center
Tue 04:56:42 PM 42.4692 -98.0775 89° East 499 574 41,000  Level Minneapolis Center
Tue 04:57:44 PM 42.4744 -97.8922 88° East 496 571 41,000  Level Minneapolis Center
Tue 04:58:46 PM 42.4778 -97.7061 89° East 500 575 41,000  Level Minneapolis Center
Tue 04:59:48 PM 42.4825 -97.4831 88° East 496 571 41,000  Level Minneapolis Center
Tue 05:01:02 PM 42.4850 -97.2956 89° East 497 572 41,000  Level Minneapolis Center
Tue 05:02:05 PM 42.4875 -97.0725 89° East 495 570 41,000  Level Minneapolis Center
Tue 05:03:07 PM 42.4903 -96.8875 89° East 491 565 41,000  Level Minneapolis Center
Tue 05:04:09 PM 42.4928 -96.6997 89° East 495 570 41,000  Level Minneapolis Center
Tue 05:05:11 PM 42.4939 -96.5150 89° East 492 566 41,000  Level Minneapolis Center
Tue 05:06:13 PM 42.4958 -96.3300 89° East 489 563 41,000  Level Minneapolis Center
Tue 05:07:15 PM 42.4972 -96.1083 89° East 488 562 41,000  Level Minneapolis Center
Tue 05:08:17 PM 42.4983 -95.9214 89° East 493 567 41,000  Level Minneapolis Center
Tue 05:09:19 PM 42.4983 -95.7356 90° East 494 568 41,000  Level Minneapolis Center
Tue 05:10:21 PM 42.4986 -95.5519 90° East 489 563 41,000  Level Minneapolis Center
Tue 05:11:23 PM 42.4989 -95.3661 90° East 492 566 41,000  Level Minneapolis Center
Tue 05:12:26 PM 42.4981 -95.1814 90° East 490 564 41,000  Level Minneapolis Center
Tue 05:13:28 PM 42.4981 -94.9953 90° East 491 565 41,000  Level Minneapolis Center
Tue 05:14:30 PM 42.4972 -94.7736 90° East 490 564 41,000  Level Minneapolis Center
Tue 05:15:32 PM 42.4947 -94.5875 91° East 493 567 41,000  Level Minneapolis Center
Tue 05:16:34 PM 42.4936 -94.4219 90° East 493 567 41,000  Level Minneapolis Center
Tue 05:17:36 PM 42.4917 -94.2014 91° East 492 566 41,000  Level Minneapolis Center
Tue 05:18:38 PM 42.4892 -94.0183 91° East 491 565 41,000  Level Minneapolis Center
Tue 05:19:40 PM 42.4867 -93.8350 91° East 492 566 41,000  Level Minneapolis Center
Tue 05:20:42 PM 42.4842 -93.6503 91° East 494 568 41,000  Level Minneapolis Center
Tue 05:21:44 PM 42.4811 -93.4658 91° East 493 567 41,000  Level Minneapolis Center
Tue 05:22:46 PM 42.4767 -93.2458 91° East 492 566 41,000  Level Minneapolis Center
Tue 05:23:48 PM 42.4747 -93.0989 91° East 492 566 41,000  Level Minneapolis Center
Tue 05:24:50 PM 42.4692 -92.8792 92° East 492 566 41,000  Level Minneapolis Center
Tue 05:25:52 PM 42.4650 -92.6961 92° East 491 565 41,000  Level Minneapolis Center
Tue 05:26:55 PM 42.4606 -92.5117 92° East 494 568 41,000  Level Minneapolis Center
Tue 05:27:57 PM 42.4547 -92.2911 92° East 495 570 41,000  Level Minneapolis Center
Tue 05:29:11 PM 42.4494 -92.1061 92° East 496 571 41,000  Level Minneapolis Center
Tue 05:30:13 PM 42.4428 -91.8831 92° East 500 575 41,000  Level Minneapolis Center
Tue 05:31:15 PM 42.4367 -91.7350 93° East 502 578 41,000  Level Minneapolis Center
Tue 05:32:17 PM 42.4286 -91.4739 92° East 506 582 41,000  Level Minneapolis Center
Tue 05:33:19 PM 42.4222 -91.2872 93° East 506 582 41,000  Level Minneapolis Center
Tue 05:34:22 PM 42.4156 -91.1017 93° East 503 579 41,000  Level Minneapolis Center
Tue 05:35:39 PM 42.4061 -90.8439 93° East 502 578 41,000  Level Chicago Center
Tue 05:36:41 PM 42.3958 -90.6575 94° East 503 579 41,000  Level Chicago Center
Tue 05:37:43 PM 42.3869 -90.4719 94° East 500 575 41,000  Level Chicago Center
Tue 05:38:45 PM 42.3769 -90.2875 94° East 498 573 41,000  Level Chicago Center
Tue 05:39:48 PM 42.3642 -90.0658 94° East 500 575 41,000  Level Chicago Center
Tue 05:40:50 PM 42.3531 -89.8656 94° East 499 574 41,000  Level Chicago Center
Tue 05:41:52 PM 42.3419 -89.6786 95° East 499 574 41,000  Level Chicago Center
Tue 05:42:54 PM 42.3303 -89.4939 95° East 495 570 41,000  Level Chicago Center
Tue 05:43:56 PM 42.3183 -89.3078 95° East 497 572 41,000  Level Chicago Center
Tue 05:44:58 PM 42.3131 -89.1250 92° East 496 571 41,000  Level Chicago Center
Tue 05:46:00 PM 42.3183 -88.9078 88° East 500 575 41,000  Level Chicago Center
Tue 05:47:02 PM 42.3242 -88.7219 88° East 488 562 41,000  Level Chicago Center
Tue 05:48:05 PM 42.3286 -88.5369 88° East 491 565 41,000  Level Chicago Center
Tue 05:49:07 PM 42.3336 -88.3533 88° East 499 574 41,000  Level Chicago Center
Tue 05:50:09 PM 42.3375 -88.1706 88° East 492 566 41,000  Level Chicago Center
Tue 05:51:11 PM 42.3431 -87.9558 88° East 491 565 41,000  Level Chicago Center
Tue 05:52:13 PM 42.3456 -87.7714 89° East 492 566 41,000  Level Chicago Center
Tue 05:53:15 PM 42.3503 -87.5769 88° East 491 565 41,000  Level Chicago Center
Tue 05:54:17 PM 42.3531 -87.3925 89° East 491 565 41,000  Level Chicago Center
Tue 05:55:19 PM 42.3617 -87.2094 86° East 490 564 41,000  Level Chicago Center
Tue 05:56:21 PM 42.3933 -87.0300 77° East 492 566 41,000  Level Chicago Center
Tue 05:57:24 PM 42.4247 -86.8539 76° East 488 562 41,000  Level Chicago Center
Tue 05:58:26 PM 42.4583 -86.6683 76° East 484 557 41,000  Level Chicago Center
Tue 05:59:28 PM 42.4867 -86.4903 78° East 486 559 41,000  Level Chicago Center
Tue 06:00:30 PM 42.5100 -86.2792 81° East 479 551 41,000  Level Chicago Center
Tue 06:01:32 PM 42.5208 -86.1008 85° East 481 554 41,000  Level Chicago Center
Tue 06:02:34 PM 42.5256 -85.9211 88° East 482 555 41,000  Level Chicago Center
Tue 06:03:36 PM 42.5422 -85.7428 83° East 484 557 41,000  Level Chicago Center
Tue 06:04:39 PM 42.5481 -85.5264 88° East 485 558 41,000  Level Chicago Center
Tue 06:05:41 PM 42.5433 -85.3442 92° East 485 558 41,000  Level Chicago Center
Tue 06:06:43 PM 42.5386 -85.1628 92° East 484 557 41,000  Level Chicago Center
Tue 06:07:45 PM 42.5319 -84.9797 93° East 487 560 41,000  Level Chicago Center
Tue 06:08:47 PM 42.5267 -84.7958 92° East 489 563 41,000  Level Chicago Center
Tue 06:09:49 PM 42.5481 -84.6122 81° East 496 571 41,000  Level Chicago Center
Tue 06:10:51 PM 42.5933 -84.3989 74° East 494 568 41,000  Level Chicago Center
Tue 06:11:53 PM 42.6314 -84.2189 74° East 497 572 41,000  Level Chicago Center
Tue 06:12:55 PM 42.6614 -84.0369 77° East 495 570 41,000  Level Chicago Center
Tue 06:13:59 PM 42.6583 -83.8244 91° East 486 559 41,000  Level Cleveland Center
Tue 06:14:59 PM 42.6531 -83.6408 92° East 486 559 41,000  Level Cleveland Center
Tue 06:15:59 PM 42.6475 -83.4542 92° East 486 559 41,000  Level Cleveland Center
Tue 06:16:59 PM 42.6392 -83.2731 94° East 491 565 41,000  Level Cleveland Center
Tue 06:17:59 PM 42.6308 -83.0892 93° East 486 559 41,000  Level Cleveland Center
Tue 06:18:59 PM 42.6242 -82.9111 93° East 481 554 41,000  Level Cleveland Center
Tue 06:19:59 PM 42.6175 -82.7275 93° East 481 554 41,000  Level Cleveland Center
Tue 06:20:59 PM 42.6081 -82.5467 94° East 481 554 41,000  Level Cleveland Center
Tue 06:21:59 PM 42.6022 -82.3997 93° East 481 554 41,000  Level Cleveland Center
Tue 06:22:59 PM 42.5925 -82.2047 94° East 481 554 41,000  Level Cleveland Center
Tue 06:23:59 PM 42.5844 -82.0242 93° East 481 554 41,000  Level Cleveland Center
Tue 06:24:59 PM 42.5761 -81.8464 94° East 481 554 41,000  Level Cleveland Center
Tue 06:25:59 PM 42.5658 -81.6489 94° East 474 545 41,000  Level Cleveland Center
Tue 06:26:59 PM 42.5547 -81.4739 95° East 474 545 41,000  Level Cleveland Center
Tue 06:27:59 PM 42.5517 -81.3131 91° East 474 545 41,000  Level Cleveland Center
Tue 06:28:59 PM 42.5778 -81.1331 79° East 480 552 41,000  Level Cleveland Center
Tue 06:29:59 PM 42.6014 -80.9556 80° East 480 552 41,000  Level Cleveland Center
Tue 06:30:59 PM 42.6225 -80.7722 81° East 487 560 41,000  Level Cleveland Center
Tue 06:31:59 PM 42.6478 -80.6000 79° East 478 550 41,000  Level Cleveland Center
Tue 06:32:59 PM 42.6664 -80.4167 82° East 478 550 41,000  Level Cleveland Center
Tue 06:33:59 PM 42.6908 -80.2161 81° East 483 556 41,000  Level Cleveland Center
Tue 06:34:59 PM 42.7131 -80.0294 81° East 494 568 41,000  Level Cleveland Center
Tue 06:35:59 PM 42.7372 -79.8453 80° East 487 560 41,000  Level Cleveland Center
Tue 06:36:59 PM 42.7586 -79.6614 81° East 487 560 41,000  Level Cleveland Center
Tue 06:37:59 PM 42.7781 -79.4744 82° East 487 560 41,000  Level Cleveland Center
Tue 06:38:59 PM 42.7989 -79.2931 81° East 487 560 41,000  Level Cleveland Center
Tue 06:39:59 PM 42.8219 -79.1114 80° East 487 560 41,000  Level Cleveland Center
Tue 06:40:59 PM 42.8403 -78.9239 82° East 487 560 41,000  Level Cleveland Center
Tue 06:41:59 PM 42.8603 -78.7364 82° East 487 560 41,000 -567 Level Cleveland Center
Tue 06:43:00 PM 42.8664 -78.5495 82° East  Level FlightAware Approximate
Tue 06:43:59 PM 42.8994 -78.3583 82° East 497 572 39,300  Level Cleveland Center
Tue 06:44:59 PM 42.9186 -78.1678 82° East 503 579 39,000 -150 Descending Cleveland Center
Tue 06:45:59 PM 42.9356 -77.9883 83° East 493 567 39,000  Level Cleveland Center
Tue 06:46:59 PM 42.9561 -77.8003 81° East 493 567 39,000  Level Cleveland Center
Tue 06:47:59 PM 42.9744 -77.6122 82° East 493 567 39,000  Level Cleveland Center
Tue 06:48:59 PM 42.9922 -77.4211 83° East 493 567 39,000  Level Cleveland Center
Tue 06:50:43 PM 43.0192 -77.1181 83° East 488 562 39,000  Level Boston Center
Tue 06:51:43 PM 43.0372 -76.9292 82° East 483 556 39,000  Level Boston Center
Tue 06:52:43 PM 43.0492 -76.7822 84° East 483 556 39,000  Level Boston Center
Tue 06:53:55 PM 43.0706 -76.5419 83° East 488 562 39,000  Level Boston Center
Tue 06:54:55 PM 43.0908 -76.3214 83° East 488 562 39,000  Level Boston Center
Tue 06:55:55 PM 43.1053 -76.1375 84° East 488 562 39,000  Level Boston Center
Tue 06:56:55 PM 43.1197 -75.9478 84° East 488 562 39,000  Level Boston Center
Tue 06:57:55 PM 43.1336 -75.7606 84° East 488 562 39,000  Level Boston Center
Tue 06:58:55 PM 43.1469 -75.5792 84° East 488 562 39,000  Level Boston Center
Tue 06:59:55 PM 43.1578 -75.4089 85° East 493 567 39,000  Level Boston Center
Tue 07:00:55 PM 43.1711 -75.2158 85° East 499 574 39,000  Level Boston Center
Tue 07:01:55 PM 43.1881 -75.0286 83° East 499 574 39,000  Level Boston Center
Tue 07:03:07 PM 43.2025 -74.8383 84° East 499 574 39,000  Level Boston Center
Tue 07:04:07 PM 43.2197 -74.6139 84° East 499 574 39,000  Level Boston Center
Tue 07:05:07 PM 43.2314 -74.4264 85° East 499 574 39,000  Level Boston Center
Tue 07:06:07 PM 43.2428 -74.2358 85° East 499 574 39,000 -50 Level Boston Center
Tue 07:07:07 PM 43.2539 -74.0536 85° East 494 568 38,900  Descending Boston Center
Tue 07:08:07 PM 43.2667 -73.8686 85° East 488 562 39,000 50 Climbing Boston Center
Tue 07:09:07 PM 43.2794 -73.6692 85° East 481 554 39,000  Level Boston Center
Tue 07:10:07 PM 43.2897 -73.4897 85° East 475 547 39,000  Level Boston Center
Tue 07:11:07 PM 43.3036 -73.3303 83° East 470 541 39,000  Level Boston Center
Tue 07:12:07 PM 43.3153 -73.1506 85° East 470 541 39,000  Level Boston Center
Tue 07:13:07 PM 43.3244 -72.9653 86° East 470 541 39,000  Level Boston Center
Tue 07:14:07 PM 43.3336 -72.7769 86° East 482 555 39,000  Level Boston Center
Tue 07:15:07 PM 43.3444 -72.5914 85° East 482 555 39,000  Level Boston Center
Tue 07:16:07 PM 43.3528 -72.4058 86° East 482 555 39,000 -250 Level Boston Center
Tue 07:17:07 PM 43.3631 -72.2231 86° East 482 555 38,500 -500 Descending Boston Center
Tue 07:18:19 PM 43.3708 -72.0403 87° East 477 549 37,900 -818 Descending Boston Center
Tue 07:19:19 PM 43.3803 -71.8175 87° East 477 549 36,700 -1,091 Descending Boston Center
Tue 07:20:31 PM 43.3894 -71.5972 87° East 477 549 35,500 -1,091 Descending Boston Center
Tue 07:21:31 PM 43.4000 -71.3914 86° East 482 555 34,300 -1,000 Descending Boston Center
Tue 07:22:31 PM 43.4047 -71.2197 88° East 482 555 33,500 -700 Descending Boston Center
Tue 07:23:31 PM 43.4169 -71.0108 85° East 490 564 32,900 -750 Descending Boston Center
Tue 07:24:31 PM 43.4061 -70.8283 95° East 490 564 32,000 -1,300 Descending Boston Center
Tue 07:25:31 PM 43.3125 -70.7022 136° Southeast 440 506 30,300 -1,800 Descending Boston Center
Tue 07:26:31 PM 43.1944 -70.6231 154° Southeast 435 501 28,400 -1,750 Descending Boston Center
Tue 07:27:31 PM 43.0769 -70.5669 161° South 430 495 26,800 -1,550 Descending Boston Center
Tue 07:28:31 PM 42.9656 -70.5106 160° South 430 495 25,300 -1,350 Descending Boston Center
Tue 07:29:31 PM 42.8772 -70.4653 159° South 430 495 24,100 -1,400 Descending Boston Center
Tue 07:30:31 PM 42.7511 -70.4042 160° South 430 495 22,500 -1,550 Descending Boston Center
Tue 07:31:31 PM 42.6458 -70.3483 159° South 425 489 21,000 -1,300 Descending Boston Center
Tue 07:32:31 PM 42.5450 -70.2983 160° South 411 473 19,900 -1,600 Descending Boston Center
Tue 07:33:31 PM 42.4314 -70.2431 160° South 392 451 17,800 -1,900 Descending Boston Center
Tue 07:34:31 PM 42.3325 -70.1961 161° South 392 451 16,100 -1,650 Descending Boston Center
Tue 07:35:31 PM 42.2336 -70.1575 164° South 386 444 14,500 -1,550 Descending Boston Center
Tue 07:36:31 PM 42.1372 -70.1386 172° South 369 425 13,000 -1,200 Descending Boston Center
Tue 07:37:31 PM 42.0411 -70.1225 173° South 364 419 12,100 -950 Descending Boston Center
Tue 07:38:31 PM 41.9469 -70.0981 169° South 353 406 11,100 -950 Descending Boston Center
Tue 07:39:31 PM 41.8631 -70.0789 170° South 336 387 10,200 -1,300 Descending Boston Center
Tue 07:40:31 PM 41.7878 -70.0622 171° South 320 368 8,500 -1,534 Descending Boston Center
Tue 07:41:44 PM 41.7081 -70.0458 171° South 303 349 6,800 -1,591 Descending Boston Center
Tue 07:42:43 PM 41.6200 -70.0242 170° South 284 327 5,000 -958 Descending Boston Center
Tue 07:43:43 PM 41.5467 -70.0047 169° South 273 314 4,900 -800 Descending Boston Center
Tue 07:44:43 PM 41.4756 -69.9881 170° South 273 314 3,400 -1,400 Descending Boston Center
Tue 07:45:43 PM 41.4125 -69.9711 169° South 254 292 2,100 -950 Descending Boston Center
Tue 07:46:43 PM 41.3517 -69.9542 168° South 238 274 1,500 -300 Descending Boston Center
Tue 07:47:43 PM 41.3150 -69.9858 213° Southwest 185 213 1,500 -200 Level Boston Center
Tue 07:48:43 PM 41.2989 -70.0086 227° Southwest 132 152 1,100 -500 Descending Boston Center
Tue 07:49:43 PM 41.2744 -70.0428 226° Southwest 122 140 500 -350 Descending Boston Center
Tue 07:50:43 PM 41.2439 -70.0714 215° Southwest 122 140 400 -100 Descending Boston Center
Tue 07:52:00 PM 41.2500 -70.0500 37° Northeast  Level FlightAware Approximate

Login

Don't have an account? Register now (free) for customized features, flight alerts, and more!